Time;durP1;ratioP1;P1;durP2;ratioP2;P2;SDS_P1;SDS_P2;PMS_P1;PMS_P2;Temp;Humidity;BMP_temperature;BMP_pressure;BME280_temperature;BME280_humidity;BME280_pressure;Samples;Min_cycle;Max_cycle;Signal;HPM_P1;HPM_P2
2023/03/22 00:00:28;;;;;;;;;;;17.30;65.90;;;;;;5038962;28;1956;-72
2023/03/22 00:02:54;;;;;;;;;;;17.30;65.20;;;;;;5039688;28;1346;-71
2023/03/22 00:05:20;;;;;;;;;;;17.30;65.20;;;;;;5039727;28;1225;-72
2023/03/22 00:07:48;;;;;;;;;;;17.30;65.20;;;;;;5041067;28;867;-72
2023/03/22 00:10:14;;;;;;;;;;;17.30;65.20;;;;;;5035157;28;851;-71
2023/03/22 00:12:40;;;;;;;;;;;17.30;65.20;;;;;;5042703;28;1058;-70
2023/03/22 00:15:06;;;;;;;;;;;17.30;65.30;;;;;;5041262;28;1229;-70
2023/03/22 00:17:32;;;;;;;;;;;17.30;65.30;;;;;;5038172;28;1287;-69
2023/03/22 00:19:57;;;;;;;;;;;17.30;65.30;;;;;;5042367;28;1909;-69
2023/03/22 00:22:23;;;;;;;;;;;17.30;65.30;;;;;;5044437;28;1049;-70
2023/03/22 00:24:48;;;;;;;;;;;17.30;65.30;;;;;;5043790;28;1350;-69
2023/03/22 00:27:14;;;;;;;;;;;17.30;65.30;;;;;;5040343;28;1065;-70
2023/03/22 00:29:40;;;;;;;;;;;17.30;65.30;;;;;;5038398;28;883;-72
2023/03/22 00:32:05;;;;;;;;;;;17.30;65.30;;;;;;5039245;28;1058;-71
2023/03/22 00:34:31;;;;;;;;;;;17.30;65.30;;;;;;5042996;28;1304;-69
2023/03/22 00:36:56;;;;;;;;;;;17.30;65.40;;;;;;5041487;28;1131;-70
2023/03/22 00:39:22;;;;;;;;;;;17.30;65.40;;;;;;5043975;28;1965;-70
2023/03/22 00:41:47;;;;;;;;;;;17.30;65.40;;;;;;5041126;28;933;-70
2023/03/22 00:44:13;;;;;;;;;;;17.30;65.40;;;;;;5042902;28;1267;-69
2023/03/22 00:46:38;;;;;;;;;;;17.30;65.40;;;;;;5040642;28;868;-69
2023/03/22 00:49:04;;;;;;;;;;;17.30;65.40;;;;;;5039020;28;824;-71
2023/03/22 00:51:29;;;;;;;;;;;17.30;65.50;;;;;;5041814;28;840;-71
2023/03/22 00:53:55;;;;;;;;;;;17.30;65.40;;;;;;5038409;28;1215;-71
2023/03/22 00:56:21;;;;;;;;;;;17.30;65.40;;;;;;5040957;28;849;-72
2023/03/22 00:58:47;;;;;;;;;;;17.30;65.50;;;;;;5043077;28;752;-71
2023/03/22 01:01:12;;;;;;;;;;;17.30;65.50;;;;;;5048399;28;1866;-70
2023/03/22 01:03:38;;;;;;;;;;;17.30;65.40;;;;;;5043043;28;1389;-72
2023/03/22 01:06:04;;;;;;;;;;;17.30;65.50;;;;;;5040609;28;1065;-72
2023/03/22 01:08:32;;;;;;;;;;;17.30;65.50;;;;;;5040403;28;817;-70
2023/03/22 01:10:57;;;;;;;;;;;17.30;65.50;;;;;;5040474;28;911;-70
2023/03/22 01:13:23;;;;;;;;;;;17.30;65.50;;;;;;5039527;28;1264;-70
2023/03/22 01:15:49;;;;;;;;;;;17.30;65.50;;;;;;5040908;28;883;-70
2023/03/22 01:18:14;;;;;;;;;;;17.20;65.40;;;;;;5039224;28;1013;-69
2023/03/22 01:20:40;;;;;;;;;;;17.30;65.50;;;;;;5039463;28;1913;-67
2023/03/22 01:23:05;;;;;;;;;;;17.20;65.40;;;;;;5040545;28;1251;-67
2023/03/22 01:25:31;;;;;;;;;;;17.30;65.50;;;;;;5042435;28;832;-69
2023/03/22 01:27:56;;;;;;;;;;;17.20;65.50;;;;;;5042558;28;927;-67
2023/03/22 01:30:22;;;;;;;;;;;17.30;65.50;;;;;;5039106;28;1074;-67
2023/03/22 01:32:47;;;;;;;;;;;17.20;65.50;;;;;;5038321;28;812;-68
2023/03/22 01:35:13;;;;;;;;;;;17.20;65.50;;;;;;5042393;28;1192;-69
2023/03/22 01:37:38;;;;;;;;;;;17.30;65.60;;;;;;5040117;28;990;-70
2023/03/22 01:40:04;;;;;;;;;;;17.30;65.60;;;;;;5038290;28;1906;-70
2023/03/22 01:42:29;;;;;;;;;;;17.20;65.50;;;;;;5041237;28;1281;-70
2023/03/22 01:45:13;;;;;;;;;;;17.30;65.60;;;;;;5039335;28;1369;-70
2023/03/22 01:47:59;;;;;;;;;;;17.20;65.50;;;;;;5041321;28;983;-69
2023/03/22 01:50:25;;;;;;;;;;;17.20;65.50;;;;;;5041541;28;1170;-71
2023/03/22 01:52:50;;;;;;;;;;;17.20;65.60;;;;;;5038872;28;1018;-71
2023/03/22 01:55:17;;;;;;;;;;;17.20;65.50;;;;;;5040581;28;1405;-71
2023/03/22 01:57:42;;;;;;;;;;;17.20;65.60;;;;;;5040247;28;812;-71
2023/03/22 02:00:10;;;;;;;;;;;17.20;65.60;;;;;;5042131;28;1930;-71
2023/03/22 02:02:35;;;;;;;;;;;17.20;65.60;;;;;;5042681;28;817;-70
2023/03/22 02:05:02;;;;;;;;;;;17.20;65.60;;;;;;5039824;28;1177;-70
2023/03/22 02:07:30;;;;;;;;;;;17.20;65.60;;;;;;5038692;28;924;-70
2023/03/22 02:09:56;;;;;;;;;;;17.20;65.60;;;;;;5039206;28;1238;-71
2023/03/22 02:12:43;;;;;;;;;;;17.20;65.60;;;;;;5040355;28;906;-70
2023/03/22 02:15:15;;;;;;;;;;;17.20;65.60;;;;;;5035387;28;1297;-70
2023/03/22 02:17:50;;;;;;;;;;;17.20;65.60;;;;;;5044741;28;1054;-71
2023/03/22 02:20:18;;;;;;;;;;;17.20;65.60;;;;;;5042162;28;1975;-70
2023/03/22 02:22:57;;;;;;;;;;;17.20;65.70;;;;;;5039259;28;879;-70
2023/03/22 02:25:34;;;;;;;;;;;17.20;65.70;;;;;;5040888;28;930;-71
2023/03/22 02:28:15;;;;;;;;;;;17.20;65.60;;;;;;5038573;28;832;-70
2023/03/22 02:30:40;;;;;;;;;;;17.20;65.70;;;;;;5038903;28;867;-70
2023/03/22 02:33:05;;;;;;;;;;;17.20;65.60;;;;;;5039522;28;1199;-69
2023/03/22 02:35:52;;;;;;;;;;;17.20;65.70;;;;;;5038898;28;1096;-70
2023/03/22 02:38:36;;;;;;;;;;;17.20;65.70;;;;;;5038702;28;1053;-69
2023/03/22 02:41:11;;;;;;;;;;;17.20;65.70;;;;;;5037057;28;1964;-72
2023/03/22 02:43:59;;;;;;;;;;;17.20;65.70;;;;;;5040729;28;1329;-74
2023/03/22 02:46:27;;;;;;;;;;;17.20;65.70;;;;;;5019477;28;1296;-74
2023/03/22 02:49:01;;;;;;;;;;;17.20;65.70;;;;;;5045859;28;863;-73
2023/03/22 02:51:33;;;;;;;;;;;17.20;65.70;;;;;;5039252;28;845;-73
2023/03/22 02:54:01;;;;;;;;;;;17.20;65.70;;;;;;5039456;28;1342;-71
2023/03/22 02:56:31;;;;;;;;;;;17.20;65.70;;;;;;5025123;28;785;-73
2023/03/22 02:58:58;;;;;;;;;;;17.20;65.70;;;;;;5040184;28;892;-73
2023/03/22 03:01:42;;;;;;;;;;;17.20;65.70;;;;;;5036305;28;1862;-70
2023/03/22 03:04:08;;;;;;;;;;;17.20;65.70;;;;;;5039682;28;1252;-70
2023/03/22 03:06:37;;;;;;;;;;;17.20;65.70;;;;;;5045651;28;1502;-70
2023/03/22 03:09:04;;;;;;;;;;;17.20;65.70;;;;;;5039019;28;1330;-70
2023/03/22 03:11:29;;;;;;;;;;;17.20;65.70;;;;;;5041381;28;864;-70
2023/03/22 03:13:55;;;;;;;;;;;17.20;65.70;;;;;;5041951;28;1378;-70
2023/03/22 03:16:21;;;;;;;;;;;17.20;65.70;;;;;;5038494;28;896;-70
2023/03/22 03:18:47;;;;;;;;;;;17.20;65.80;;;;;;5024317;28;1607;-70
2023/03/22 03:21:28;;;;;;;;;;;17.20;65.70;;;;;;5038063;28;2003;-70
2023/03/22 03:23:56;;;;;;;;;;;17.20;65.70;;;;;;5038231;28;1346;-70
2023/03/22 03:26:41;;;;;;;;;;;17.20;65.80;;;;;;5040014;28;891;-70
2023/03/22 03:29:10;;;;;;;;;;;17.20;65.80;;;;;;5040898;28;872;-70
2023/03/22 03:31:40;;;;;;;;;;;17.20;65.80;;;;;;5038157;28;1194;-69
2023/03/22 03:34:09;;;;;;;;;;;17.20;65.80;;;;;;5040471;28;1268;-70
2023/03/22 03:36:36;;;;;;;;;;;17.20;65.80;;;;;;5035295;28;1381;-71
2023/03/22 03:39:03;;;;;;;;;;;17.20;65.80;;;;;;5037669;28;879;-71
2023/03/22 03:41:28;;;;;;;;;;;17.20;65.80;;;;;;5041240;28;1960;-71
2023/03/22 03:43:55;;;;;;;;;;;17.20;65.80;;;;;;5039569;28;1292;-71
2023/03/22 03:46:20;;;;;;;;;;;17.20;65.80;;;;;;5035621;28;847;-71
2023/03/22 03:48:46;;;;;;;;;;;17.20;65.80;;;;;;5037732;28;938;-70
2023/03/22 03:51:12;;;;;;;;;;;17.20;65.80;;;;;;5041981;28;867;-70
2023/03/22 03:53:37;;;;;;;;;;;17.20;65.80;;;;;;5040306;28;1286;-70
2023/03/22 03:56:03;;;;;;;;;;;17.20;65.90;;;;;;5041856;28;899;-71
2023/03/22 03:58:29;;;;;;;;;;;17.20;65.80;;;;;;5043288;28;1069;-71
2023/03/22 04:00:55;;;;;;;;;;;17.20;65.80;;;;;;5040736;28;1902;-70
2023/03/22 04:03:20;;;;;;;;;;;17.20;65.90;;;;;;5041062;28;1343;-70
2023/03/22 04:05:46;;;;;;;;;;;17.20;65.90;;;;;;5044258;28;1314;-70
2023/03/22 04:08:11;;;;;;;;;;;17.20;65.80;;;;;;5041220;28;938;-70
2023/03/22 04:10:36;;;;;;;;;;;17.20;65.80;;;;;;5042361;28;1406;-70
2023/03/22 04:13:02;;;;;;;;;;;17.20;65.80;;;;;;5042899;28;1342;-70
2023/03/22 04:15:27;;;;;;;;;;;17.20;65.90;;;;;;5041375;28;1018;-70
2023/03/22 04:17:53;;;;;;;;;;;17.20;65.80;;;;;;5043688;28;871;-70
2023/03/22 04:20:19;;;;;;;;;;;17.20;65.80;;;;;;5040644;28;1956;-70
2023/03/22 04:22:45;;;;;;;;;;;17.20;65.90;;;;;;5041327;28;844;-70
2023/03/22 04:25:11;;;;;;;;;;;17.20;65.90;;;;;;5040771;28;1249;-70
2023/03/22 04:27:37;;;;;;;;;;;17.20;65.90;;;;;;5042324;28;872;-71
2023/03/22 04:30:04;;;;;;;;;;;17.20;65.90;;;;;;5038989;28;879;-70
2023/03/22 04:32:29;;;;;;;;;;;17.20;65.90;;;;;;5039719;28;952;-70
2023/03/22 04:34:54;;;;;;;;;;;17.20;65.90;;;;;;5041267;28;1279;-70
2023/03/22 04:37:23;;;;;;;;;;;17.10;65.80;;;;;;5043897;28;1369;-70
2023/03/22 04:39:48;;;;;;;;;;;17.20;66.00;;;;;;5042726;28;1963;-70
2023/03/22 04:42:14;;;;;;;;;;;17.20;65.90;;;;;;5041526;28;1243;-70
2023/03/22 04:44:39;;;;;;;;;;;17.20;65.90;;;;;;5037888;28;1230;-71
2023/03/22 04:47:05;;;;;;;;;;;17.20;66.00;;;;;;5042116;28;1038;-70
2023/03/22 04:49:30;;;;;;;;;;;17.20;65.90;;;;;;5039801;28;809;-70
2023/03/22 04:51:56;;;;;;;;;;;17.20;66.00;;;;;;5041319;28;1179;-70
2023/03/22 04:54:22;;;;;;;;;;;17.20;65.90;;;;;;5038918;28;1288;-70
2023/03/22 04:56:47;;;;;;;;;;;17.20;66.00;;;;;;5039717;28;863;-70
2023/03/22 04:59:13;;;;;;;;;;;17.10;65.80;;;;;;5037885;28;1021;-70
2023/03/22 05:01:39;;;;;;;;;;;17.10;65.80;;;;;;5040733;28;1898;-71
2023/03/22 05:04:05;;;;;;;;;;;17.20;65.90;;;;;;5041260;28;1293;-71
2023/03/22 05:06:32;;;;;;;;;;;17.20;66.00;;;;;;5036437;28;918;-71
2023/03/22 05:08:58;;;;;;;;;;;17.20;65.90;;;;;;5038689;28;844;-70
2023/03/22 05:11:26;;;;;;;;;;;17.20;65.80;;;;;;5041120;28;5484;-71
2023/03/22 05:13:55;;;;;;;;;;;17.20;65.80;;;;;;5039981;28;1352;-70
2023/03/22 05:16:21;;;;;;;;;;;17.20;65.80;;;;;;5040178;28;876;-70
2023/03/22 05:18:46;;;;;;;;;;;17.20;65.60;;;;;;5035965;28;813;-71
2023/03/22 05:21:15;;;;;;;;;;;17.30;65.60;;;;;;5045246;28;1909;-70
2023/03/22 05:23:41;;;;;;;;;;;17.30;65.40;;;;;;5041258;28;1295;-70
2023/03/22 05:26:07;;;;;;;;;;;17.30;65.30;;;;;;5040684;28;876;-70
2023/03/22 05:28:33;;;;;;;;;;;17.40;65.30;;;;;;5041149;28;856;-71
2023/03/22 05:30:58;;;;;;;;;;;17.40;65.10;;;;;;5039461;28;834;-71
2023/03/22 05:33:24;;;;;;;;;;;17.40;65.00;;;;;;5040997;28;1259;-71
2023/03/22 05:35:49;;;;;;;;;;;17.40;64.90;;;;;;5043675;28;938;-71
2023/03/22 05:38:15;;;;;;;;;;;17.40;64.80;;;;;;5042245;28;1450;-70
2023/03/22 05:40:41;;;;;;;;;;;17.50;64.80;;;;;;5049561;28;1981;-70
2023/03/22 05:43:07;;;;;;;;;;;17.50;64.70;;;;;;5041553;28;1295;-70
2023/03/22 05:45:34;;;;;;;;;;;17.50;64.60;;;;;;5040683;28;1014;-71
2023/03/22 05:47:59;;;;;;;;;;;17.50;64.50;;;;;;5037905;28;859;-70
2023/03/22 05:50:25;;;;;;;;;;;17.50;64.40;;;;;;5035719;28;864;-72
2023/03/22 05:52:50;;;;;;;;;;;17.60;64.50;;;;;;5038996;28;1845;-69
2023/03/22 05:55:16;;;;;;;;;;;17.60;64.40;;;;;;5030054;28;1945;-72
2023/03/22 05:57:42;;;;;;;;;;;17.60;64.30;;;;;;5040477;28;1007;-71
2023/03/22 06:00:12;;;;;;;;;;;17.60;64.20;;;;;;5039615;28;1965;-71
2023/03/22 06:02:38;;;;;;;;;;;17.60;64.20;;;;;;5038719;28;1282;-69
2023/03/22 06:05:03;;;;;;;;;;;17.60;64.20;;;;;;5041404;28;1635;-70
2023/03/22 06:07:29;;;;;;;;;;;17.60;64.20;;;;;;5038726;28;820;-72
2023/03/22 06:09:54;;;;;;;;;;;17.60;64.10;;;;;;5041783;28;896;-70
2023/03/22 06:12:23;;;;;;;;;;;17.70;64.10;;;;;;5036992;28;845;-69
2023/03/22 06:14:49;;;;;;;;;;;17.70;64.00;;;;;;5037246;28;1358;-69
2023/03/22 06:17:14;;;;;;;;;;;17.70;64.00;;;;;;5041008;28;875;-69
2023/03/22 06:19:40;;;;;;;;;;;17.70;64.00;;;;;;5036456;28;1972;-70
2023/03/22 06:22:05;;;;;;;;;;;17.70;64.00;;;;;;5040799;28;1314;-70
2023/03/22 06:24:31;;;;;;;;;;;17.70;63.90;;;;;;5040081;28;1279;-70
2023/03/22 06:26:56;;;;;;;;;;;17.70;63.90;;;;;;5045019;28;1066;-68
2023/03/22 06:29:22;;;;;;;;;;;17.70;63.90;;;;;;5040711;28;1612;-77
2023/03/22 06:31:47;;;;;;;;;;;17.70;63.90;;;;;;5053754;28;978;-77
2023/03/22 06:34:13;;;;;;;;;;;17.70;63.90;;;;;;5048027;28;1253;-75
2023/03/22 06:36:39;;;;;;;;;;;17.70;63.90;;;;;;5047993;28;1153;-79
2023/03/22 06:39:05;;;;;;;;;;;17.70;63.90;;;;;;5041781;28;814;-69
2023/03/22 06:41:30;;;;;;;;;;;17.70;63.90;;;;;;5039248;28;1995;-70
2023/03/22 06:43:56;;;;;;;;;;;17.70;63.80;;;;;;5039779;28;1259;-70
2023/03/22 06:46:21;;;;;;;;;;;17.70;63.90;;;;;;5038116;28;777;-70
2023/03/22 06:48:47;;;;;;;;;;;17.70;63.90;;;;;;5038866;28;1093;-73
2023/03/22 06:51:12;;;;;;;;;;;17.70;63.90;;;;;;5040402;28;1223;-73
2023/03/22 06:53:38;;;;;;;;;;;17.70;63.90;;;;;;5038945;28;1365;-73
2023/03/22 06:56:03;;;;;;;;;;;17.70;63.90;;;;;;5038981;28;850;-71
2023/03/22 06:58:29;;;;;;;;;;;17.70;63.90;;;;;;5042590;28;873;-74
2023/03/22 07:00:55;;;;;;;;;;;17.70;64.00;;;;;;5036722;28;1902;-73
2023/03/22 07:03:21;;;;;;;;;;;17.70;63.90;;;;;;5039352;28;1369;-73
2023/03/22 07:05:46;;;;;;;;;;;17.70;63.90;;;;;;5040582;28;912;-72
2023/03/22 07:08:11;;;;;;;;;;;17.70;64.00;;;;;;5035740;28;1161;-72
2023/03/22 07:10:37;;;;;;;;;;;17.70;64.00;;;;;;5036302;28;871;-73
2023/03/22 07:13:02;;;;;;;;;;;17.70;64.00;;;;;;5039756;28;1337;-73
2023/03/22 07:15:31;;;;;;;;;;;17.70;64.00;;;;;;5039876;28;818;-73
2023/03/22 07:17:58;;;;;;;;;;;17.70;64.00;;;;;;5034708;28;1447;-68
2023/03/22 07:20:23;;;;;;;;;;;17.70;64.00;;;;;;5036489;28;1910;-69
2023/03/22 07:22:49;;;;;;;;;;;17.70;64.10;;;;;;5037976;28;1370;-70
2023/03/22 07:25:15;;;;;;;;;;;17.70;64.10;;;;;;5046994;28;1264;-69
2023/03/22 07:27:40;;;;;;;;;;;17.60;64.10;;;;;;5039159;28;1010;-70
2023/03/22 07:30:06;;;;;;;;;;;17.60;64.10;;;;;;5039568;28;844;-69
2023/03/22 07:32:32;;;;;;;;;;;17.60;64.10;;;;;;5039400;28;900;-69
2023/03/22 07:34:57;;;;;;;;;;;17.60;64.10;;;;;;5037311;28;1370;-70
2023/03/22 07:37:23;;;;;;;;;;;17.60;64.20;;;;;;5038095;28;868;-70
2023/03/22 07:39:48;;;;;;;;;;;17.60;64.20;;;;;;5038531;28;1898;-71
2023/03/22 07:42:14;;;;;;;;;;;17.60;64.20;;;;;;5038486;28;1325;-71
2023/03/22 07:44:40;;;;;;;;;;;17.60;64.20;;;;;;5036896;28;1334;-71
2023/03/22 07:47:06;;;;;;;;;;;17.60;64.30;;;;;;5040086;28;831;-72
2023/03/22 07:49:31;;;;;;;;;;;17.60;64.30;;;;;;5037756;28;817;-72
2023/03/22 07:51:57;;;;;;;;;;;17.60;64.30;;;;;;5035580;28;888;-71
2023/03/22 07:54:22;;;;;;;;;;;17.60;64.30;;;;;;5036987;28;1315;-70
2023/03/22 07:56:48;;;;;;;;;;;17.60;64.40;;;;;;5035526;28;1306;-70
2023/03/22 07:59:14;;;;;;;;;;;17.60;64.80;;;;;;5036611;28;906;-72
2023/03/22 08:01:39;;;;;;;;;;;17.60;64.40;;;;;;5039940;28;1972;-72
2023/03/22 08:04:05;;;;;;;;;;;17.60;64.40;;;;;;5037906;28;1283;-72
2023/03/22 08:06:31;;;;;;;;;;;17.60;64.40;;;;;;5036061;28;864;-73
2023/03/22 08:08:57;;;;;;;;;;;17.60;64.50;;;;;;5039207;28;852;-72
2023/03/22 08:11:23;;;;;;;;;;;17.50;64.40;;;;;;5037910;28;1002;-72
2023/03/22 08:13:48;;;;;;;;;;;17.60;64.50;;;;;;5038670;28;1380;-72
2023/03/22 08:16:13;;;;;;;;;;;17.60;64.50;;;;;;5036889;28;1010;-72
2023/03/22 08:18:39;;;;;;;;;;;17.50;64.50;;;;;;5035650;28;1504;-72
2023/03/22 08:21:05;;;;;;;;;;;17.60;64.50;;;;;;5038813;28;1967;-72
2023/03/22 08:23:31;;;;;;;;;;;17.50;65.20;;;;;;5039534;28;1237;-72
2023/03/22 08:25:56;;;;;;;;;;;17.60;64.50;;;;;;5039282;28;851;-72
2023/03/22 08:28:22;;;;;;;;;;;17.50;64.50;;;;;;5035179;28;780;-72
2023/03/22 08:30:47;;;;;;;;;;;17.50;64.50;;;;;;5039748;28;852;-72
2023/03/22 08:33:13;;;;;;;;;;;17.50;64.50;;;;;;5033021;28;1188;-72
2023/03/22 08:35:39;;;;;;;;;;;17.50;64.60;;;;;;5038980;28;884;-72
2023/03/22 08:38:04;;;;;;;;;;;17.50;64.60;;;;;;5038252;28;1077;-73
2023/03/22 08:40:30;;;;;;;;;;;17.50;65.30;;;;;;5042178;28;2103;-73
2023/03/22 08:42:55;;;;;;;;;;;17.50;64.60;;;;;;5042404;28;1458;-72
2023/03/22 08:45:21;;;;;;;;;;;17.50;64.60;;;;;;5042317;28;1302;-72
2023/03/22 08:47:46;;;;;;;;;;;17.50;64.60;;;;;;5042824;28;820;-72
2023/03/22 08:50:12;;;;;;;;;;;17.50;64.60;;;;;;5040776;28;926;-73
2023/03/22 08:52:37;;;;;;;;;;;17.50;64.60;;;;;;5041045;28;820;-73
2023/03/22 08:55:03;;;;;;;;;;;17.50;65.00;;;;;;5037108;28;1252;-73
2023/03/22 08:57:29;;;;;;;;;;;17.50;64.60;;;;;;5041635;28;895;-72
2023/03/22 08:59:56;;;;;;;;;;;17.60;64.70;;;;;;5038938;28;1906;-73
2023/03/22 09:02:22;;;;;;;;;;;17.50;64.60;;;;;;5041172;28;923;-72
2023/03/22 09:04:47;;;;;;;;;;;17.50;64.60;;;;;;5042437;28;1259;-72
2023/03/22 09:07:13;;;;;;;;;;;17.50;64.60;;;;;;5040089;28;988;-73
2023/03/22 09:09:38;;;;;;;;;;;17.50;64.70;;;;;;5042781;28;1954;-72
2023/03/22 09:12:04;;;;;;;;;;;17.50;64.60;;;;;;5040353;28;1253;-73
2023/03/22 09:14:30;;;;;;;;;;;17.50;64.70;;;;;;5040308;28;1502;-73
2023/03/22 09:16:55;;;;;;;;;;;17.50;64.70;;;;;;5044628;28;1038;-73
2023/03/22 09:19:21;;;;;;;;;;;17.50;64.70;;;;;;5043725;28;856;-72
2023/03/22 09:21:46;;;;;;;;;;;17.50;64.70;;;;;;5038647;28;1942;-72
2023/03/22 09:24:12;;;;;;;;;;;17.50;65.50;;;;;;5039013;28;1318;-73
2023/03/22 09:26:37;;;;;;;;;;;17.50;64.80;;;;;;5041262;28;880;-72
2023/03/22 09:29:03;;;;;;;;;;;17.50;64.80;;;;;;5040305;28;860;-72
2023/03/22 09:31:28;;;;;;;;;;;17.50;64.80;;;;;;5047696;28;1930;-72
2023/03/22 09:33:54;;;;;;;;;;;17.50;64.80;;;;;;5040365;28;1499;-72
2023/03/22 09:36:19;;;;;;;;;;;17.50;64.80;;;;;;5040127;28;1545;-72
2023/03/22 09:38:45;;;;;;;;;;;17.50;64.80;;;;;;5045058;28;1384;-72
2023/03/22 09:41:10;;;;;;;;;;;17.50;64.80;;;;;;5043540;28;1930;-72
2023/03/22 09:43:41;;;;;;;;;;;17.50;64.90;;;;;;5040279;28;1689;-72
2023/03/22 09:46:09;;;;;;;;;;;17.50;64.90;;;;;;5038385;28;923;-72
2023/03/22 09:48:38;;;;;;;;;;;17.50;64.90;;;;;;5037286;28;799;-72
2023/03/22 09:51:04;;;;;;;;;;;17.50;65.00;;;;;;5039141;28;863;-72
2023/03/22 09:53:30;;;;;;;;;;;17.40;64.90;;;;;;5039739;28;1284;-72
2023/03/22 09:55:55;;;;;;;;;;;17.50;64.90;;;;;;5038815;28;916;-72
2023/03/22 09:58:27;;;;;;;;;;;17.40;64.90;;;;;;5041894;28;837;-72
2023/03/22 10:00:53;;;;;;;;;;;17.50;64.90;;;;;;5036656;28;1962;-72
2023/03/22 10:03:30;;;;;;;;;;;17.50;65.00;;;;;;5039809;28;2119;-72
2023/03/22 10:06:01;;;;;;;;;;;17.40;65.00;;;;;;5039422;28;1319;-72
2023/03/22 10:08:32;;;;;;;;;;;17.40;64.90;;;;;;5043343;28;1027;-72
2023/03/22 10:10:58;;;;;;;;;;;17.40;64.90;;;;;;5040590;28;1426;-72
2023/03/22 10:13:35;;;;;;;;;;;17.50;65.00;;;;;;5038441;28;1357;-72
2023/03/22 10:16:01;;;;;;;;;;;17.40;65.00;;;;;;5042518;28;849;-72
2023/03/22 10:18:37;;;;;;;;;;;17.40;65.00;;;;;;5040712;28;832;-72
2023/03/22 10:21:09;;;;;;;;;;;17.50;65.00;;;;;;5039201;28;1906;-72
2023/03/22 10:23:41;;;;;;;;;;;17.50;65.00;;;;;;5042940;28;1328;-72
2023/03/22 10:26:07;;;;;;;;;;;17.40;65.00;;;;;;5036398;28;785;-72
2023/03/22 10:28:42;;;;;;;;;;;17.40;65.00;;;;;;5042386;28;812;-71
2023/03/22 10:31:16;;;;;;;;;;;17.40;65.00;;;;;;5040551;28;837;-72
2023/03/22 10:33:49;;;;;;;;;;;17.40;65.00;;;;;;5038686;28;1244;-72
2023/03/22 10:36:15;;;;;;;;;;;17.40;65.10;;;;;;5042304;28;931;-72
2023/03/22 10:39:02;;;;;;;;;;;17.40;65.10;;;;;;5043382;28;1469;-72
2023/03/22 10:41:28;;;;;;;;;;;17.40;65.10;;;;;;5035326;28;1906;-72
2023/03/22 10:43:57;;;;;;;;;;;17.40;65.10;;;;;;5039699;28;1343;-72
2023/03/22 10:46:26;;;;;;;;;;;17.40;65.10;;;;;;5040608;28;914;-72
2023/03/22 10:48:52;;;;;;;;;;;17.40;65.10;;;;;;5036094;28;1097;-72
2023/03/22 10:51:19;;;;;;;;;;;17.40;65.10;;;;;;5042154;28;799;-72
2023/03/22 10:53:46;;;;;;;;;;;17.40;65.10;;;;;;5037446;28;1329;-72
2023/03/22 10:56:13;;;;;;;;;;;17.40;65.20;;;;;;5040120;28;906;-72
2023/03/22 10:58:39;;;;;;;;;;;17.40;65.10;;;;;;5033639;28;869;-72
2023/03/22 11:01:06;;;;;;;;;;;17.40;65.10;;;;;;5042808;28;1967;-72
2023/03/22 11:03:38;;;;;;;;;;;17.40;65.20;;;;;;5041212;28;1268;-71
2023/03/22 11:06:05;;;;;;;;;;;17.40;65.20;;;;;;5038065;28;1040;-72
2023/03/22 11:08:41;;;;;;;;;;;17.40;65.20;;;;;;5041425;28;837;-71
2023/03/22 11:11:13;;;;;;;;;;;17.40;65.20;;;;;;5041133;28;832;-71
2023/03/22 11:13:38;;;;;;;;;;;17.40;65.30;;;;;;5038913;28;1276;-72
2023/03/22 11:16:04;;;;;;;;;;;17.40;65.20;;;;;;5036231;28;834;-71
2023/03/22 11:18:31;;;;;;;;;;;17.40;65.20;;;;;;5038890;28;1496;-71
2023/03/22 11:21:02;;;;;;;;;;;17.40;65.30;;;;;;5045684;28;1976;-71
2023/03/22 11:23:29;;;;;;;;;;;17.40;65.30;;;;;;5038460;28;1362;-71
2023/03/22 11:25:55;;;;;;;;;;;17.40;65.30;;;;;;5036935;28;848;-71
2023/03/22 11:28:39;;;;;;;;;;;17.40;65.30;;;;;;5037914;28;1347;-71
2023/03/22 11:31:09;;;;;;;;;;;17.40;65.30;;;;;;5040394;28;892;-71
2023/03/22 11:33:34;;;;;;;;;;;17.40;65.30;;;;;;5045541;28;1223;-71
2023/03/22 11:36:01;;;;;;;;;;;17.40;65.40;;;;;;5037499;28;840;-71
2023/03/22 11:38:30;;;;;;;;;;;17.40;65.40;;;;;;5037050;28;1575;-71
2023/03/22 11:40:58;;;;;;;;;;;17.30;65.30;;;;;;5038590;28;1902;-71
2023/03/22 11:43:25;;;;;;;;;;;17.40;65.40;;;;;;5038274;28;1398;-71
2023/03/22 11:45:54;;;;;;;;;;;17.30;65.30;;;;;;5035235;28;836;-71
2023/03/22 11:48:21;;;;;;;;;;;17.40;65.40;;;;;;5041493;28;966;-71
2023/03/22 11:50:46;;;;;;;;;;;17.30;65.30;;;;;;5037896;28;1011;-71
2023/03/22 11:53:14;;;;;;;;;;;17.30;65.40;;;;;;5039349;28;1263;-71
2023/03/22 11:55:39;;;;;;;;;;;17.30;65.40;;;;;;5038678;28;859;-72
2023/03/22 11:58:05;;;;;;;;;;;17.40;65.40;;;;;;5038198;28;1395;-72
2023/03/22 12:00:31;;;;;;;;;;;17.30;65.40;;;;;;5039928;28;1926;-72
2023/03/22 12:02:59;;;;;;;;;;;17.30;65.40;;;;;;5041995;28;1218;-71
2023/03/22 12:05:26;;;;;;;;;;;17.30;65.40;;;;;;5044749;28;966;-72
2023/03/22 12:07:59;;;;;;;;;;;17.40;65.50;;;;;;5039182;28;876;-71
2023/03/22 12:10:46;;;;;;;;;;;17.30;65.40;;;;;;5038464;28;943;-71
2023/03/22 12:13:13;;;;;;;;;;;17.30;65.40;;;;;;5040991;28;1275;-72
2023/03/22 12:15:47;;;;;;;;;;;17.30;65.40;;;;;;5038759;28;848;-72
2023/03/22 12:18:16;;;;;;;;;;;17.30;65.40;;;;;;5044109;28;753;-72
2023/03/22 12:20:50;;;;;;;;;;;17.30;65.50;;;;;;5041448;28;1922;-72
2023/03/22 12:23:17;;;;;;;;;;;17.30;65.50;;;;;;5041826;28;1227;-72
2023/03/22 12:25:45;;;;;;;;;;;17.30;65.50;;;;;;5049085;28;829;-72
2023/03/22 12:28:13;;;;;;;;;;;17.30;65.50;;;;;;5042398;28;1046;-72
2023/03/22 12:30:48;;;;;;;;;;;17.30;65.50;;;;;;5048290;28;878;-72
2023/03/22 12:33:18;;;;;;;;;;;17.30;65.50;;;;;;5041528;28;1196;-72
2023/03/22 12:35:44;;;;;;;;;;;17.30;65.50;;;;;;5043473;28;982;-72
2023/03/22 12:38:20;;;;;;;;;;;17.30;65.50;;;;;;5043677;28;1367;-72
2023/03/22 12:40:45;;;;;;;;;;;17.30;65.50;;;;;;5040863;28;1918;-72
2023/03/22 12:43:14;;;;;;;;;;;17.30;65.50;;;;;;5041837;28;1301;-72
2023/03/22 12:45:43;;;;;;;;;;;17.30;65.50;;;;;;5042693;28;812;-72
2023/03/22 12:48:11;;;;;;;;;;;17.30;65.50;;;;;;5041319;28;892;-71
2023/03/22 12:50:55;;;;;;;;;;;17.30;65.50;;;;;;5039612;28;1073;-71
2023/03/22 12:53:20;;;;;;;;;;;17.30;65.50;;;;;;5027254;28;1302;-71
2023/03/22 12:55:46;;;;;;;;;;;17.30;65.50;;;;;;5040364;28;1054;-71
2023/03/22 12:58:14;;;;;;;;;;;17.30;65.50;;;;;;5048021;28;1050;-70
2023/03/22 13:00:42;;;;;;;;;;;17.30;65.60;;;;;;5048286;28;1961;-70
2023/03/22 13:03:14;;;;;;;;;;;17.30;65.60;;;;;;5039994;28;1258;-70
2023/03/22 13:05:40;;;;;;;;;;;17.30;65.60;;;;;;5040454;28;951;-70
2023/03/22 13:08:05;;;;;;;;;;;17.30;65.60;;;;;;5041238;28;855;-71
2023/03/22 13:10:31;;;;;;;;;;;17.30;65.60;;;;;;5041037;28;859;-72
2023/03/22 13:13:15;;;;;;;;;;;17.30;65.60;;;;;;5040711;28;1565;-72
2023/03/22 13:15:59;;;;;;;;;;;17.30;65.60;;;;;;5041494;28;848;-71
2023/03/22 13:18:34;;;;;;;;;;;17.30;65.60;;;;;;5041554;28;821;-72
2023/03/22 13:21:09;;;;;;;;;;;17.30;65.60;;;;;;5041597;28;1980;-72
2023/03/22 13:23:34;;;;;;;;;;;17.30;65.60;;;;;;5057850;28;1353;-72
2023/03/22 13:26:01;;;;;;;;;;;17.30;65.60;;;;;;5040594;28;828;-71
2023/03/22 13:28:27;;;;;;;;;;;17.30;65.60;;;;;;5043699;28;747;-72
2023/03/22 13:30:53;;;;;;;;;;;17.30;65.60;;;;;;5042652;28;2128;-72
2023/03/22 13:33:20;;;;;;;;;;;17.30;65.60;;;;;;5047348;28;2014;-71
2023/03/22 13:35:47;;;;;;;;;;;17.30;65.70;;;;;;5031325;28;1231;-71
2023/03/22 13:38:19;;;;;;;;;;;17.30;65.70;;;;;;5028086;28;1066;-71
2023/03/22 13:40:48;;;;;;;;;;;17.30;65.70;;;;;;5039190;28;1914;-70
2023/03/22 13:43:22;;;;;;;;;;;17.30;65.70;;;;;;5040298;28;1315;-70
2023/03/22 13:45:57;;;;;;;;;;;17.30;65.70;;;;;;5042927;28;840;-71
2023/03/22 13:48:40;;;;;;;;;;;17.30;65.70;;;;;;5046944;28;1456;-71
2023/03/22 13:51:10;;;;;;;;;;;17.30;65.70;;;;;;5044891;28;803;-70
2023/03/22 13:53:36;;;;;;;;;;;17.30;65.70;;;;;;5043751;28;1352;-71
2023/03/22 13:56:04;;;;;;;;;;;17.30;65.70;;;;;;5042692;28;907;-70
2023/03/22 13:58:34;;;;;;;;;;;17.30;65.70;;;;;;5041198;28;938;-71
2023/03/22 14:01:01;;;;;;;;;;;17.30;65.70;;;;;;5039807;28;1973;-70
2023/03/22 14:03:30;;;;;;;;;;;17.30;65.70;;;;;;5039687;28;1271;-71
2023/03/22 14:06:16;;;;;;;;;;;17.30;65.70;;;;;;5039658;28;833;-71
2023/03/22 14:08:42;;;;;;;;;;;17.30;65.70;;;;;;5032371;28;1317;-71
2023/03/22 14:11:19;;;;;;;;;;;17.20;65.70;;;;;;5039765;28;816;-71
2023/03/22 14:14:04;;;;;;;;;;;17.30;65.80;;;;;;5046869;28;1367;-71
2023/03/22 14:16:34;;;;;;;;;;;17.30;65.80;;;;;;5041467;28;915;-71
2023/03/22 14:18:59;;;;;;;;;;;17.30;65.80;;;;;;5031935;28;1393;-71
2023/03/22 14:21:30;;;;;;;;;;;17.30;65.80;;;;;;5039162;28;1906;-71
2023/03/22 14:23:55;;;;;;;;;;;17.30;65.80;;;;;;5038519;28;1251;-71
2023/03/22 14:26:22;;;;;;;;;;;17.30;65.80;;;;;;5041151;28;794;-72
2023/03/22 14:28:48;;;;;;;;;;;17.30;65.80;;;;;;5042202;28;931;-72
2023/03/22 14:31:16;;;;;;;;;;;17.30;65.80;;;;;;5041607;28;864;-71
2023/03/22 14:33:42;;;;;;;;;;;17.20;65.80;;;;;;5023712;28;2014;-71
2023/03/22 14:36:10;;;;;;;;;;;17.30;65.80;;;;;;5040092;28;1355;-72
2023/03/22 14:38:38;;;;;;;;;;;17.20;65.70;;;;;;5038762;28;1219;-71